sensor_id;sensor_type;location;lat;lon;timestamp;P1;durP1;ratioP1;P2;durP2;ratioP2
75885;SDS011;64561;44.018;10.144;2023-05-31T00:01:53;7.00;;;3.72;;
75885;SDS011;64561;44.018;10.144;2023-05-31T00:04:20;7.65;;;4.43;;
75885;SDS011;64561;44.018;10.144;2023-05-31T00:06:47;6.90;;;4.53;;
75885;SDS011;64561;44.018;10.144;2023-05-31T00:09:14;7.68;;;4.65;;
75885;SDS011;64561;44.018;10.144;2023-05-31T00:11:42;8.88;;;4.82;;
75885;SDS011;64561;44.018;10.144;2023-05-31T00:14:09;7.72;;;4.20;;
75885;SDS011;64561;44.018;10.144;2023-05-31T00:16:37;6.28;;;4.68;;
75885;SDS011;64561;44.018;10.144;2023-05-31T00:19:07;5.80;;;4.22;;
75885;SDS011;64561;44.018;10.144;2023-05-31T00:21:34;5.90;;;3.97;;
75885;SDS011;64561;44.018;10.144;2023-05-31T00:24:02;5.97;;;4.07;;
75885;SDS011;64561;44.018;10.144;2023-05-31T00:26:29;6.22;;;4.22;;
75885;SDS011;64561;44.018;10.144;2023-05-31T00:28:56;10.07;;;4.88;;
75885;SDS011;64561;44.018;10.144;2023-05-31T00:31:23;6.38;;;4.25;;
75885;SDS011;64561;44.018;10.144;2023-05-31T00:33:51;8.23;;;4.45;;
75885;SDS011;64561;44.018;10.144;2023-05-31T00:36:18;5.88;;;4.65;;
75885;SDS011;64561;44.018;10.144;2023-05-31T00:38:45;7.55;;;4.05;;
75885;SDS011;64561;44.018;10.144;2023-05-31T00:41:12;9.23;;;4.63;;
75885;SDS011;64561;44.018;10.144;2023-05-31T00:43:39;6.55;;;4.47;;
75885;SDS011;64561;44.018;10.144;2023-05-31T00:46:13;7.95;;;4.85;;
75885;SDS011;64561;44.018;10.144;2023-05-31T00:48:52;6.68;;;3.75;;
75885;SDS011;64561;44.018;10.144;2023-05-31T00:51:20;13.30;;;8.00;;
75885;SDS011;64561;44.018;10.144;2023-05-31T00:53:48;9.63;;;5.63;;
75885;SDS011;64561;44.018;10.144;2023-05-31T00:56:15;9.13;;;4.85;;
75885;SDS011;64561;44.018;10.144;2023-05-31T00:58:43;8.48;;;5.25;;
75885;SDS011;64561;44.018;10.144;2023-05-31T01:01:12;7.80;;;4.40;;
75885;SDS011;64561;44.018;10.144;2023-05-31T01:03:41;7.85;;;5.20;;
75885;SDS011;64561;44.018;10.144;2023-05-31T01:06:09;7.13;;;4.55;;
75885;SDS011;64561;44.018;10.144;2023-05-31T01:08:37;10.65;;;6.80;;
75885;SDS011;64561;44.018;10.144;2023-05-31T01:14:16;6.47;;;4.25;;
75885;SDS011;64561;44.018;10.144;2023-05-31T01:16:54;6.93;;;4.68;;
75885;SDS011;64561;44.018;10.144;2023-05-31T01:28:19;7.00;;;4.55;;
75885;SDS011;64561;44.018;10.144;2023-05-31T01:30:48;7.25;;;4.68;;
75885;SDS011;64561;44.018;10.144;2023-05-31T01:33:16;7.57;;;5.30;;
75885;SDS011;64561;44.018;10.144;2023-05-31T01:35:44;5.85;;;4.43;;
75885;SDS011;64561;44.018;10.144;2023-05-31T01:38:11;6.75;;;3.97;;
75885;SDS011;64561;44.018;10.144;2023-05-31T01:40:39;5.45;;;3.90;;
75885;SDS011;64561;44.018;10.144;2023-05-31T01:43:06;5.82;;;4.50;;
75885;SDS011;64561;44.018;10.144;2023-05-31T01:45:37;5.40;;;4.38;;
75885;SDS011;64561;44.018;10.144;2023-05-31T01:48:06;6.35;;;4.07;;
75885;SDS011;64561;44.018;10.144;2023-05-31T01:50:35;6.25;;;4.65;;
75885;SDS011;64561;44.018;10.144;2023-05-31T01:53:03;7.88;;;5.20;;
75885;SDS011;64561;44.018;10.144;2023-05-31T01:55:32;6.32;;;4.50;;
75885;SDS011;64561;44.018;10.144;2023-05-31T01:57:59;6.57;;;4.85;;
75885;SDS011;64561;44.018;10.144;2023-05-31T02:00:29;8.85;;;4.88;;
75885;SDS011;64561;44.018;10.144;2023-05-31T02:02:58;6.93;;;4.78;;
75885;SDS011;64561;44.018;10.144;2023-05-31T02:05:26;6.00;;;4.38;;
75885;SDS011;64561;44.018;10.144;2023-05-31T02:07:53;7.13;;;4.45;;
75885;SDS011;64561;44.018;10.144;2023-05-31T02:10:21;7.70;;;4.57;;
75885;SDS011;64561;44.018;10.144;2023-05-31T02:12:48;6.30;;;3.88;;
75885;SDS011;64561;44.018;10.144;2023-05-31T02:15:20;6.72;;;4.50;;
75885;SDS011;64561;44.018;10.144;2023-05-31T02:17:49;9.15;;;4.55;;
75885;SDS011;64561;44.018;10.144;2023-05-31T02:20:19;5.93;;;4.22;;
75885;SDS011;64561;44.018;10.144;2023-05-31T02:22:47;6.55;;;4.07;;
75885;SDS011;64561;44.018;10.144;2023-05-31T02:25:15;5.88;;;4.28;;
75885;SDS011;64561;44.018;10.144;2023-05-31T02:27:42;7.70;;;4.70;;
75885;SDS011;64561;44.018;10.144;2023-05-31T02:30:09;7.65;;;4.25;;
75885;SDS011;64561;44.018;10.144;2023-05-31T02:32:37;12.10;;;4.43;;
75885;SDS011;64561;44.018;10.144;2023-05-31T02:35:05;6.95;;;4.50;;
75885;SDS011;64561;44.018;10.144;2023-05-31T02:37:34;8.05;;;4.43;;
75885;SDS011;64561;44.018;10.144;2023-05-31T02:40:04;7.25;;;5.60;;
75885;SDS011;64561;44.018;10.144;2023-05-31T02:42:37;8.18;;;4.53;;
75885;SDS011;64561;44.018;10.144;2023-05-31T02:45:09;6.63;;;4.38;;
75885;SDS011;64561;44.018;10.144;2023-05-31T02:47:37;6.15;;;3.83;;
75885;SDS011;64561;44.018;10.144;2023-05-31T02:50:05;6.57;;;4.63;;
75885;SDS011;64561;44.018;10.144;2023-05-31T02:52:47;6.70;;;3.92;;
75885;SDS011;64561;44.018;10.144;2023-05-31T02:55:40;6.70;;;4.22;;
75885;SDS011;64561;44.018;10.144;2023-05-31T02:58:16;8.70;;;4.32;;
75885;SDS011;64561;44.018;10.144;2023-05-31T03:00:58;6.78;;;4.18;;
75885;SDS011;64561;44.018;10.144;2023-05-31T03:03:27;7.63;;;4.45;;
75885;SDS011;64561;44.018;10.144;2023-05-31T03:05:59;5.82;;;3.92;;
75885;SDS011;64561;44.018;10.144;2023-05-31T03:08:26;68.43;;;27.10;;
75885;SDS011;64561;44.018;10.144;2023-05-31T03:10:53;67.88;;;25.95;;
75885;SDS011;64561;44.018;10.144;2023-05-31T03:13:20;64.78;;;23.88;;
75885;SDS011;64561;44.018;10.144;2023-05-31T03:15:48;55.53;;;23.33;;
75885;SDS011;64561;44.018;10.144;2023-05-31T03:18:15;26.10;;;11.48;;
75885;SDS011;64561;44.018;10.144;2023-05-31T03:20:43;31.88;;;15.60;;
75885;SDS011;64561;44.018;10.144;2023-05-31T03:23:11;20.65;;;9.77;;
75885;SDS011;64561;44.018;10.144;2023-05-31T03:25:38;17.13;;;8.95;;
75885;SDS011;64561;44.018;10.144;2023-05-31T03:28:06;10.75;;;5.93;;
75885;SDS011;64561;44.018;10.144;2023-05-31T03:30:34;7.40;;;5.15;;
75885;SDS011;64561;44.018;10.144;2023-05-31T03:33:01;7.85;;;4.93;;
75885;SDS011;64561;44.018;10.144;2023-05-31T03:35:31;7.20;;;4.38;;
75885;SDS011;64561;44.018;10.144;2023-05-31T03:38:01;8.32;;;5.07;;
75885;SDS011;64561;44.018;10.144;2023-05-31T03:40:29;7.38;;;4.90;;
75885;SDS011;64561;44.018;10.144;2023-05-31T03:42:57;7.38;;;4.55;;
75885;SDS011;64561;44.018;10.144;2023-05-31T03:45:24;8.27;;;4.20;;
75885;SDS011;64561;44.018;10.144;2023-05-31T03:47:56;10.25;;;4.95;;
75885;SDS011;64561;44.018;10.144;2023-05-31T03:50:23;6.25;;;4.20;;
75885;SDS011;64561;44.018;10.144;2023-05-31T03:52:50;7.28;;;4.43;;
75885;SDS011;64561;44.018;10.144;2023-05-31T03:55:17;6.07;;;4.05;;
75885;SDS011;64561;44.018;10.144;2023-05-31T03:57:44;7.32;;;4.30;;
75885;SDS011;64561;44.018;10.144;2023-05-31T04:00:11;7.78;;;4.93;;
75885;SDS011;64561;44.018;10.144;2023-05-31T04:02:39;8.98;;;4.95;;
75885;SDS011;64561;44.018;10.144;2023-05-31T04:05:27;6.28;;;4.53;;
75885;SDS011;64561;44.018;10.144;2023-05-31T04:07:57;7.43;;;4.50;;
75885;SDS011;64561;44.018;10.144;2023-05-31T04:10:24;8.93;;;4.88;;
75885;SDS011;64561;44.018;10.144;2023-05-31T04:12:51;9.10;;;5.00;;
75885;SDS011;64561;44.018;10.144;2023-05-31T04:15:19;6.90;;;4.32;;
75885;SDS011;64561;44.018;10.144;2023-05-31T04:17:46;8.45;;;4.80;;
75885;SDS011;64561;44.018;10.144;2023-05-31T04:20:13;7.50;;;4.82;;
75885;SDS011;64561;44.018;10.144;2023-05-31T04:22:42;8.15;;;5.03;;
75885;SDS011;64561;44.018;10.144;2023-05-31T04:25:09;7.07;;;4.43;;
75885;SDS011;64561;44.018;10.144;2023-05-31T04:27:41;10.25;;;4.82;;
75885;SDS011;64561;44.018;10.144;2023-05-31T04:30:08;7.82;;;5.13;;
75885;SDS011;64561;44.018;10.144;2023-05-31T04:32:36;9.07;;;5.28;;
75885;SDS011;64561;44.018;10.144;2023-05-31T04:35:03;8.35;;;4.95;;
75885;SDS011;64561;44.018;10.144;2023-05-31T04:37:35;8.52;;;4.95;;
75885;SDS011;64561;44.018;10.144;2023-05-31T04:42:36;9.32;;;4.95;;
75885;SDS011;64561;44.018;10.144;2023-05-31T04:45:11;9.15;;;4.95;;
75885;SDS011;64561;44.018;10.144;2023-05-31T04:47:47;6.78;;;4.63;;
75885;SDS011;64561;44.018;10.144;2023-05-31T04:50:17;6.65;;;4.50;;
75885;SDS011;64561;44.018;10.144;2023-05-31T04:52:45;8.52;;;5.55;;
75885;SDS011;64561;44.018;10.144;2023-05-31T04:55:13;7.10;;;4.65;;
75885;SDS011;64561;44.018;10.144;2023-05-31T04:57:41;10.20;;;5.00;;
75885;SDS011;64561;44.018;10.144;2023-05-31T05:00:10;8.05;;;4.85;;
75885;SDS011;64561;44.018;10.144;2023-05-31T05:02:54;8.10;;;5.10;;
75885;SDS011;64561;44.018;10.144;2023-05-31T05:05:23;11.82;;;5.30;;
75885;SDS011;64561;44.018;10.144;2023-05-31T05:07:50;10.00;;;5.90;;
75885;SDS011;64561;44.018;10.144;2023-05-31T05:10:17;7.45;;;5.20;;
75885;SDS011;64561;44.018;10.144;2023-05-31T05:12:45;8.73;;;4.78;;
75885;SDS011;64561;44.018;10.144;2023-05-31T05:15:12;6.72;;;4.60;;
75885;SDS011;64561;44.018;10.144;2023-05-31T05:17:39;7.22;;;4.50;;
75885;SDS011;64561;44.018;10.144;2023-05-31T05:20:08;6.57;;;4.85;;
75885;SDS011;64561;44.018;10.144;2023-05-31T05:22:38;7.55;;;4.65;;
75885;SDS011;64561;44.018;10.144;2023-05-31T05:25:06;7.28;;;5.13;;
75885;SDS011;64561;44.018;10.144;2023-05-31T05:27:34;9.40;;;5.28;;
75885;SDS011;64561;44.018;10.144;2023-05-31T05:30:03;8.65;;;4.80;;
75885;SDS011;64561;44.018;10.144;2023-05-31T05:32:31;7.57;;;4.95;;
75885;SDS011;64561;44.018;10.144;2023-05-31T05:34:58;6.03;;;4.18;;
75885;SDS011;64561;44.018;10.144;2023-05-31T05:37:25;6.93;;;5.05;;
75885;SDS011;64561;44.018;10.144;2023-05-31T05:39:53;9.63;;;5.20;;
75885;SDS011;64561;44.018;10.144;2023-05-31T05:42:20;7.90;;;4.75;;
75885;SDS011;64561;44.018;10.144;2023-05-31T05:44:47;10.20;;;4.97;;
75885;SDS011;64561;44.018;10.144;2023-05-31T05:47:14;8.52;;;4.55;;
75885;SDS011;64561;44.018;10.144;2023-05-31T05:49:42;12.27;;;4.88;;
75885;SDS011;64561;44.018;10.144;2023-05-31T05:52:09;7.45;;;4.47;;
75885;SDS011;64561;44.018;10.144;2023-05-31T05:54:38;6.65;;;4.65;;
75885;SDS011;64561;44.018;10.144;2023-05-31T05:57:07;8.95;;;5.07;;
75885;SDS011;64561;44.018;10.144;2023-05-31T05:59:38;8.00;;;5.68;;
75885;SDS011;64561;44.018;10.144;2023-05-31T06:02:16;7.57;;;5.63;;
75885;SDS011;64561;44.018;10.144;2023-05-31T06:04:43;7.85;;;6.07;;
75885;SDS011;64561;44.018;10.144;2023-05-31T06:07:11;11.10;;;6.05;;
75885;SDS011;64561;44.018;10.144;2023-05-31T06:09:41;7.15;;;5.20;;
75885;SDS011;64561;44.018;10.144;2023-05-31T06:12:08;7.30;;;5.07;;
75885;SDS011;64561;44.018;10.144;2023-05-31T06:14:39;8.55;;;5.20;;
75885;SDS011;64561;44.018;10.144;2023-05-31T06:17:06;8.18;;;4.30;;
75885;SDS011;64561;44.018;10.144;2023-05-31T06:19:33;8.20;;;4.93;;
75885;SDS011;64561;44.018;10.144;2023-05-31T06:22:00;7.13;;;5.20;;
75885;SDS011;64561;44.018;10.144;2023-05-31T06:24:27;8.85;;;5.35;;
75885;SDS011;64561;44.018;10.144;2023-05-31T06:26:54;6.60;;;4.78;;
75885;SDS011;64561;44.018;10.144;2023-05-31T06:29:26;7.75;;;4.75;;
75885;SDS011;64561;44.018;10.144;2023-05-31T06:31:54;7.80;;;5.25;;
75885;SDS011;64561;44.018;10.144;2023-05-31T06:34:24;7.72;;;5.10;;
75885;SDS011;64561;44.018;10.144;2023-05-31T06:36:53;7.88;;;4.85;;
75885;SDS011;64561;44.018;10.144;2023-05-31T06:39:20;8.75;;;5.93;;
75885;SDS011;64561;44.018;10.144;2023-05-31T06:41:47;9.65;;;5.03;;
75885;SDS011;64561;44.018;10.144;2023-05-31T06:44:52;7.30;;;5.45;;
75885;SDS011;64561;44.018;10.144;2023-05-31T06:47:55;8.93;;;5.75;;
75885;SDS011;64561;44.018;10.144;2023-05-31T06:50:44;7.72;;;5.68;;
75885;SDS011;64561;44.018;10.144;2023-05-31T06:53:31;9.27;;;4.95;;
75885;SDS011;64561;44.018;10.144;2023-05-31T06:56:11;9.43;;;5.40;;
75885;SDS011;64561;44.018;10.144;2023-05-31T06:58:39;8.45;;;5.28;;
75885;SDS011;64561;44.018;10.144;2023-05-31T07:01:07;15.77;;;5.97;;
75885;SDS011;64561;44.018;10.144;2023-05-31T07:03:34;6.95;;;5.10;;
75885;SDS011;64561;44.018;10.144;2023-05-31T07:06:02;7.78;;;5.40;;
75885;SDS011;64561;44.018;10.144;2023-05-31T07:08:30;8.07;;;5.20;;
75885;SDS011;64561;44.018;10.144;2023-05-31T07:11:15;9.32;;;5.13;;
75885;SDS011;64561;44.018;10.144;2023-05-31T07:13:42;6.60;;;4.45;;
75885;SDS011;64561;44.018;10.144;2023-05-31T07:16:10;10.15;;;5.82;;
75885;SDS011;64561;44.018;10.144;2023-05-31T07:18:37;10.93;;;5.82;;
75885;SDS011;64561;44.018;10.144;2023-05-31T07:21:05;9.57;;;6.03;;
75885;SDS011;64561;44.018;10.144;2023-05-31T07:23:34;8.20;;;5.30;;
75885;SDS011;64561;44.018;10.144;2023-05-31T07:26:01;7.72;;;4.72;;
75885;SDS011;64561;44.018;10.144;2023-05-31T07:28:28;10.10;;;5.57;;
75885;SDS011;64561;44.018;10.144;2023-05-31T07:30:55;13.85;;;5.50;;
75885;SDS011;64561;44.018;10.144;2023-05-31T07:33:22;9.00;;;5.10;;
75885;SDS011;64561;44.018;10.144;2023-05-31T07:35:57;9.40;;;5.75;;
75885;SDS011;64561;44.018;10.144;2023-05-31T07:38:26;9.38;;;5.70;;
75885;SDS011;64561;44.018;10.144;2023-05-31T07:40:53;8.25;;;6.22;;
75885;SDS011;64561;44.018;10.144;2023-05-31T07:43:21;11.50;;;5.78;;
75885;SDS011;64561;44.018;10.144;2023-05-31T07:45:50;9.40;;;5.28;;
75885;SDS011;64561;44.018;10.144;2023-05-31T07:48:17;8.23;;;5.15;;
75885;SDS011;64561;44.018;10.144;2023-05-31T07:50:45;6.75;;;4.68;;
75885;SDS011;64561;44.018;10.144;2023-05-31T07:53:13;8.13;;;4.70;;
75885;SDS011;64561;44.018;10.144;2023-05-31T07:55:40;6.72;;;4.90;;
75885;SDS011;64561;44.018;10.144;2023-05-31T07:58:07;7.43;;;5.18;;
75885;SDS011;64561;44.018;10.144;2023-05-31T08:00:34;7.38;;;4.97;;
75885;SDS011;64561;44.018;10.144;2023-05-31T08:03:02;7.65;;;5.20;;
75885;SDS011;64561;44.018;10.144;2023-05-31T08:05:29;8.43;;;5.03;;
75885;SDS011;64561;44.018;10.144;2023-05-31T08:07:56;8.00;;;4.90;;
75885;SDS011;64561;44.018;10.144;2023-05-31T08:10:24;7.90;;;5.10;;
75885;SDS011;64561;44.018;10.144;2023-05-31T08:12:52;8.63;;;5.95;;
75885;SDS011;64561;44.018;10.144;2023-05-31T08:15:19;11.85;;;5.53;;
75885;SDS011;64561;44.018;10.144;2023-05-31T08:17:46;10.30;;;5.55;;
75885;SDS011;64561;44.018;10.144;2023-05-31T08:20:14;7.72;;;5.07;;
75885;SDS011;64561;44.018;10.144;2023-05-31T08:22:43;7.30;;;4.97;;
75885;SDS011;64561;44.018;10.144;2023-05-31T08:25:11;7.75;;;4.82;;
75885;SDS011;64561;44.018;10.144;2023-05-31T08:27:40;7.40;;;5.20;;
75885;SDS011;64561;44.018;10.144;2023-05-31T08:30:09;6.93;;;5.05;;
75885;SDS011;64561;44.018;10.144;2023-05-31T08:32:37;8.82;;;5.07;;
75885;SDS011;64561;44.018;10.144;2023-05-31T08:35:05;8.15;;;5.00;;
75885;SDS011;64561;44.018;10.144;2023-05-31T08:37:36;8.10;;;4.80;;
75885;SDS011;64561;44.018;10.144;2023-05-31T08:40:04;7.85;;;5.25;;
75885;SDS011;64561;44.018;10.144;2023-05-31T08:42:40;7.75;;;5.15;;
75885;SDS011;64561;44.018;10.144;2023-05-31T08:45:18;9.25;;;5.53;;
75885;SDS011;64561;44.018;10.144;2023-05-31T08:47:51;6.15;;;4.38;;
75885;SDS011;64561;44.018;10.144;2023-05-31T08:50:25;9.13;;;5.00;;
75885;SDS011;64561;44.018;10.144;2023-05-31T08:52:53;6.43;;;4.80;;
75885;SDS011;64561;44.018;10.144;2023-05-31T08:55:22;7.68;;;4.68;;
75885;SDS011;64561;44.018;10.144;2023-05-31T08:57:51;7.93;;;5.20;;
75885;SDS011;64561;44.018;10.144;2023-05-31T09:00:19;7.00;;;4.85;;
75885;SDS011;64561;44.018;10.144;2023-05-31T09:02:47;9.07;;;5.43;;
75885;SDS011;64561;44.018;10.144;2023-05-31T09:05:17;9.70;;;7.20;;
75885;SDS011;64561;44.018;10.144;2023-05-31T09:07:44;8.75;;;5.88;;
75885;SDS011;64561;44.018;10.144;2023-05-31T09:10:13;7.63;;;5.22;;
75885;SDS011;64561;44.018;10.144;2023-05-31T09:12:42;7.95;;;5.25;;
75885;SDS011;64561;44.018;10.144;2023-05-31T09:15:12;6.85;;;4.65;;
75885;SDS011;64561;44.018;10.144;2023-05-31T09:17:43;7.28;;;5.22;;
75885;SDS011;64561;44.018;10.144;2023-05-31T09:20:11;7.53;;;5.43;;
75885;SDS011;64561;44.018;10.144;2023-05-31T09:22:38;7.72;;;4.93;;
75885;SDS011;64561;44.018;10.144;2023-05-31T09:25:06;6.50;;;4.88;;
75885;SDS011;64561;44.018;10.144;2023-05-31T09:27:34;6.68;;;4.82;;
75885;SDS011;64561;44.018;10.144;2023-05-31T09:30:09;6.70;;;4.60;;
75885;SDS011;64561;44.018;10.144;2023-05-31T09:32:38;9.15;;;5.10;;
75885;SDS011;64561;44.018;10.144;2023-05-31T09:35:09;6.65;;;4.80;;
75885;SDS011;64561;44.018;10.144;2023-05-31T09:37:43;6.55;;;4.82;;
75885;SDS011;64561;44.018;10.144;2023-05-31T09:40:25;6.50;;;4.95;;
75885;SDS011;64561;44.018;10.144;2023-05-31T09:42:53;7.45;;;5.07;;
75885;SDS011;64561;44.018;10.144;2023-05-31T09:45:21;7.68;;;5.03;;
75885;SDS011;64561;44.018;10.144;2023-05-31T09:47:49;8.75;;;4.65;;
75885;SDS011;64561;44.018;10.144;2023-05-31T09:50:20;7.38;;;4.60;;
75885;SDS011;64561;44.018;10.144;2023-05-31T09:52:55;8.43;;;5.60;;
75885;SDS011;64561;44.018;10.144;2023-05-31T09:55:25;5.88;;;4.85;;
75885;SDS011;64561;44.018;10.144;2023-05-31T09:58:07;7.10;;;4.78;;
75885;SDS011;64561;44.018;10.144;2023-05-31T10:00:34;9.10;;;4.82;;
75885;SDS011;64561;44.018;10.144;2023-05-31T10:03:15;8.80;;;4.90;;
75885;SDS011;64561;44.018;10.144;2023-05-31T10:05:42;8.07;;;5.72;;
75885;SDS011;64561;44.018;10.144;2023-05-31T10:08:09;6.50;;;4.75;;
75885;SDS011;64561;44.018;10.144;2023-05-31T10:10:37;9.25;;;5.43;;
75885;SDS011;64561;44.018;10.144;2023-05-31T10:13:04;7.30;;;5.32;;
75885;SDS011;64561;44.018;10.144;2023-05-31T10:15:32;7.10;;;5.13;;
75885;SDS011;64561;44.018;10.144;2023-05-31T10:18:03;9.15;;;5.35;;
75885;SDS011;64561;44.018;10.144;2023-05-31T10:20:38;6.78;;;4.80;;
75885;SDS011;64561;44.018;10.144;2023-05-31T10:23:14;8.75;;;5.03;;
75885;SDS011;64561;44.018;10.144;2023-05-31T10:25:50;6.90;;;5.05;;
75885;SDS011;64561;44.018;10.144;2023-05-31T10:28:51;7.97;;;5.38;;
75885;SDS011;64561;44.018;10.144;2023-05-31T10:31:27;6.57;;;4.78;;
75885;SDS011;64561;44.018;10.144;2023-05-31T10:34:02;6.03;;;4.45;;
75885;SDS011;64561;44.018;10.144;2023-05-31T10:36:41;6.75;;;4.13;;
75885;SDS011;64561;44.018;10.144;2023-05-31T10:39:10;6.82;;;4.57;;
75885;SDS011;64561;44.018;10.144;2023-05-31T10:41:44;5.85;;;4.10;;
75885;SDS011;64561;44.018;10.144;2023-05-31T10:44:19;7.53;;;3.97;;
75885;SDS011;64561;44.018;10.144;2023-05-31T10:46:56;5.63;;;4.30;;
75885;SDS011;64561;44.018;10.144;2023-05-31T10:49:31;5.40;;;3.97;;
75885;SDS011;64561;44.018;10.144;2023-05-31T10:52:03;7.85;;;4.70;;
75885;SDS011;64561;44.018;10.144;2023-05-31T10:54:32;6.82;;;4.55;;
75885;SDS011;64561;44.018;10.144;2023-05-31T10:57:02;6.30;;;4.70;;
75885;SDS011;64561;44.018;10.144;2023-05-31T10:59:39;8.43;;;4.40;;
75885;SDS011;64561;44.018;10.144;2023-05-31T11:02:10;6.07;;;4.53;;
75885;SDS011;64561;44.018;10.144;2023-05-31T11:04:37;5.70;;;4.28;;
75885;SDS011;64561;44.018;10.144;2023-05-31T11:09:39;7.22;;;4.95;;
75885;SDS011;64561;44.018;10.144;2023-05-31T11:12:10;7.38;;;4.78;;
75885;SDS011;64561;44.018;10.144;2023-05-31T11:14:39;6.38;;;4.35;;
75885;SDS011;64561;44.018;10.144;2023-05-31T11:19:34;7.97;;;4.88;;
75885;SDS011;64561;44.018;10.144;2023-05-31T11:22:24;7.32;;;4.80;;
75885;SDS011;64561;44.018;10.144;2023-05-31T11:24:53;7.95;;;4.72;;
75885;SDS011;64561;44.018;10.144;2023-05-31T11:27:35;6.57;;;4.65;;
75885;SDS011;64561;44.018;10.144;2023-05-31T11:30:13;7.53;;;4.53;;
75885;SDS011;64561;44.018;10.144;2023-05-31T11:35:10;6.22;;;4.47;;
75885;SDS011;64561;44.018;10.144;2023-05-31T11:37:41;8.07;;;5.22;;
75885;SDS011;64561;44.018;10.144;2023-05-31T11:40:11;6.63;;;4.80;;
75885;SDS011;64561;44.018;10.144;2023-05-31T11:42:44;6.15;;;4.65;;
75885;SDS011;64561;44.018;10.144;2023-05-31T11:45:13;6.95;;;5.07;;
75885;SDS011;64561;44.018;10.144;2023-05-31T11:50:19;8.85;;;4.95;;
75885;SDS011;64561;44.018;10.144;2023-05-31T11:52:47;7.20;;;4.82;;
75885;SDS011;64561;44.018;10.144;2023-05-31T11:55:17;10.40;;;5.05;;
75885;SDS011;64561;44.018;10.144;2023-05-31T11:57:46;7.22;;;4.65;;
75885;SDS011;64561;44.018;10.144;2023-05-31T12:00:23;7.10;;;4.10;;
75885;SDS011;64561;44.018;10.144;2023-05-31T12:02:51;7.57;;;4.28;;
75885;SDS011;64561;44.018;10.144;2023-05-31T12:05:20;6.72;;;5.03;;
75885;SDS011;64561;44.018;10.144;2023-05-31T12:07:52;8.52;;;4.97;;
75885;SDS011;64561;44.018;10.144;2023-05-31T12:10:20;6.88;;;4.00;;
75885;SDS011;64561;44.018;10.144;2023-05-31T12:12:47;5.93;;;4.50;;
75885;SDS011;64561;44.018;10.144;2023-05-31T12:15:16;8.15;;;4.88;;
75885;SDS011;64561;44.018;10.144;2023-05-31T12:17:43;8.00;;;4.20;;
75885;SDS011;64561;44.018;10.144;2023-05-31T12:20:10;5.85;;;4.15;;
75885;SDS011;64561;44.018;10.144;2023-05-31T12:22:40;7.28;;;4.93;;
75885;SDS011;64561;44.018;10.144;2023-05-31T12:25:08;6.97;;;4.53;;
75885;SDS011;64561;44.018;10.144;2023-05-31T12:27:36;7.28;;;4.80;;
75885;SDS011;64561;44.018;10.144;2023-05-31T12:30:15;6.50;;;4.53;;
75885;SDS011;64561;44.018;10.144;2023-05-31T12:32:45;7.25;;;4.40;;
75885;SDS011;64561;44.018;10.144;2023-05-31T12:35:15;8.10;;;4.63;;
75885;SDS011;64561;44.018;10.144;2023-05-31T12:37:45;6.68;;;4.07;;
75885;SDS011;64561;44.018;10.144;2023-05-31T12:40:16;6.90;;;4.32;;
75885;SDS011;64561;44.018;10.144;2023-05-31T12:42:49;5.25;;;4.10;;
75885;SDS011;64561;44.018;10.144;2023-05-31T12:45:17;6.20;;;4.80;;
75885;SDS011;64561;44.018;10.144;2023-05-31T12:47:57;7.15;;;4.72;;
75885;SDS011;64561;44.018;10.144;2023-05-31T12:50:28;5.97;;;4.13;;
75885;SDS011;64561;44.018;10.144;2023-05-31T12:52:57;7.10;;;4.85;;
75885;SDS011;64561;44.018;10.144;2023-05-31T12:55:24;7.10;;;4.90;;
75885;SDS011;64561;44.018;10.144;2023-05-31T12:57:51;6.45;;;4.63;;
75885;SDS011;64561;44.018;10.144;2023-05-31T13:00:19;9.00;;;4.95;;
75885;SDS011;64561;44.018;10.144;2023-05-31T13:02:47;10.55;;;6.05;;
75885;SDS011;64561;44.018;10.144;2023-05-31T13:05:17;11.23;;;5.85;;
75885;SDS011;64561;44.018;10.144;2023-05-31T13:07:48;9.25;;;6.07;;
75885;SDS011;64561;44.018;10.144;2023-05-31T13:10:17;6.78;;;4.72;;
75885;SDS011;64561;44.018;10.144;2023-05-31T13:12:45;7.45;;;5.20;;
75885;SDS011;64561;44.018;10.144;2023-05-31T13:15:12;6.55;;;4.40;;
75885;SDS011;64561;44.018;10.144;2023-05-31T13:17:39;7.82;;;5.18;;
75885;SDS011;64561;44.018;10.144;2023-05-31T13:20:07;6.32;;;4.38;;
75885;SDS011;64561;44.018;10.144;2023-05-31T13:22:38;5.53;;;4.50;;
75885;SDS011;64561;44.018;10.144;2023-05-31T13:25:06;8.23;;;5.10;;
75885;SDS011;64561;44.018;10.144;2023-05-31T13:27:34;6.43;;;4.88;;
75885;SDS011;64561;44.018;10.144;2023-05-31T13:30:02;7.30;;;4.68;;
75885;SDS011;64561;44.018;10.144;2023-05-31T13:32:33;8.38;;;6.25;;
75885;SDS011;64561;44.018;10.144;2023-05-31T13:35:00;5.97;;;4.63;;
75885;SDS011;64561;44.018;10.144;2023-05-31T13:37:29;5.70;;;4.30;;
75885;SDS011;64561;44.018;10.144;2023-05-31T13:39:56;7.22;;;3.97;;
75885;SDS011;64561;44.018;10.144;2023-05-31T13:42:24;7.22;;;4.40;;
75885;SDS011;64561;44.018;10.144;2023-05-31T13:44:51;7.20;;;4.68;;
75885;SDS011;64561;44.018;10.144;2023-05-31T13:47:22;5.97;;;4.18;;
75885;SDS011;64561;44.018;10.144;2023-05-31T13:49:49;5.57;;;4.40;;
75885;SDS011;64561;44.018;10.144;2023-05-31T13:52:16;8.00;;;4.35;;
75885;SDS011;64561;44.018;10.144;2023-05-31T13:54:44;6.95;;;3.97;;
75885;SDS011;64561;44.018;10.144;2023-05-31T13:57:11;6.80;;;4.30;;
75885;SDS011;64561;44.018;10.144;2023-05-31T13:59:38;6.10;;;4.53;;
75885;SDS011;64561;44.018;10.144;2023-05-31T14:02:05;6.97;;;3.97;;
75885;SDS011;64561;44.018;10.144;2023-05-31T14:04:32;6.55;;;4.20;;
75885;SDS011;64561;44.018;10.144;2023-05-31T14:07:00;6.07;;;4.40;;
75885;SDS011;64561;44.018;10.144;2023-05-31T14:09:30;5.80;;;3.75;;
75885;SDS011;64561;44.018;10.144;2023-05-31T14:11:57;6.45;;;4.13;;
75885;SDS011;64561;44.018;10.144;2023-05-31T14:14:25;6.32;;;4.40;;
75885;SDS011;64561;44.018;10.144;2023-05-31T14:16:53;7.28;;;4.22;;
75885;SDS011;64561;44.018;10.144;2023-05-31T14:19:20;5.82;;;4.40;;
75885;SDS011;64561;44.018;10.144;2023-05-31T14:21:47;6.75;;;4.30;;
75885;SDS011;64561;44.018;10.144;2023-05-31T14:24:17;6.75;;;4.28;;
75885;SDS011;64561;44.018;10.144;2023-05-31T14:26:47;6.47;;;4.07;;
75885;SDS011;64561;44.018;10.144;2023-05-31T14:29:14;7.20;;;4.20;;
75885;SDS011;64561;44.018;10.144;2023-05-31T14:31:41;7.22;;;4.60;;
75885;SDS011;64561;44.018;10.144;2023-05-31T14:34:12;6.65;;;4.38;;
75885;SDS011;64561;44.018;10.144;2023-05-31T14:36:42;5.70;;;4.13;;
75885;SDS011;64561;44.018;10.144;2023-05-31T14:39:12;7.47;;;4.53;;
75885;SDS011;64561;44.018;10.144;2023-05-31T14:41:39;6.93;;;4.18;;
75885;SDS011;64561;44.018;10.144;2023-05-31T14:44:08;6.60;;;4.25;;
75885;SDS011;64561;44.018;10.144;2023-05-31T14:46:35;6.35;;;4.63;;
75885;SDS011;64561;44.018;10.144;2023-05-31T14:49:02;6.97;;;4.60;;
75885;SDS011;64561;44.018;10.144;2023-05-31T14:51:30;6.75;;;4.47;;
75885;SDS011;64561;44.018;10.144;2023-05-31T14:53:58;5.65;;;4.38;;
75885;SDS011;64561;44.018;10.144;2023-05-31T14:56:26;8.13;;;4.50;;
75885;SDS011;64561;44.018;10.144;2023-05-31T14:58:53;8.13;;;4.63;;
75885;SDS011;64561;44.018;10.144;2023-05-31T15:01:20;5.28;;;4.43;;
75885;SDS011;64561;44.018;10.144;2023-05-31T15:03:47;7.53;;;5.03;;
75885;SDS011;64561;44.018;10.144;2023-05-31T15:06:15;7.85;;;4.93;;
75885;SDS011;64561;44.018;10.144;2023-05-31T15:08:42;6.70;;;5.00;;
75885;SDS011;64561;44.018;10.144;2023-05-31T15:11:12;7.45;;;5.43;;
75885;SDS011;64561;44.018;10.144;2023-05-31T15:13:39;8.50;;;4.55;;